Sunapee, NH (03782)

11:57 AM EST on December 10, 2016 (GMT -0500)
| | Change Station

Elev -9999 ft 0.00 °N, 0.00 °E | Updated 8 minutes ago

Mostly Cloudy
Mostly Cloudy
69 °F
Feels Like 69 °F
N
4
Wind Variable Wind from ESE
Gusts mph

Today
High -- | Low -- °F
--% Chance of Precip.
Yesterday
High -- | Low -- °F
Precip. -- in
Pressure 30.31 in
Visibility 10.0 miles
Clouds Overcast 3600 ft
Dew Point 60 °F
Humidity 74%
Rainfall --
Snow Depth Not available.
7:10 AM 4:12 PM
Waxing Gibbous, 85% visible
METAR KLEB 101653Z 29011G16KT 10SM OVC036 M06/M14 A3027 RMK AO2 SLP262 T10561144
Pressure 30.31 in
Visibility 10.0 miles
Clouds Overcast 3600 ft
Dew Point 60 °F
Humidity 74%
Rainfall --
Snow Depth Not available.
7:10 AM 4:12 PM
Waxing Gibbous, 85% visible
METAR KLEB 101653Z 29011G16KT 10SM OVC036 M06/M14 A3027 RMK AO2 SLP262 T10561144

10-Day Weather Forecast

Almanac

Astronomy

Dec. 10, 2016 Rise Set
Actual Time
Civil Twilight
Nautical Twilight
Astronomical Twilight
Moon
Length of Visible Light
Length of Day
Tomorrow will be .
, % of the Moon is Illuminated

Today's Extremes

State Highs State Lows

Community

WunderPhotos

Upload Photos

1,956,569 photos uploaded!

WunderBlog® & News

Nearby

Air Quality

  Air Quality AQ Index Pollutant
Not available.

Snow Depth

Station Depth Elevation

Earthquake Activity

City Distance Mag. Time & Date
Minimum magnitude displayed is 2.5.

Coastal Water Temperatures

Place Temperature

Stations

Nearby Weather Stations

Station Location Temp. Windchill Dew Point Humidity Wind Precip. Elev Updated Type
                   

Watches & Warnings

There are currently no watches in effect.